sensor_id;sensor_type;location;lat;lon;timestamp;P1;durP1;ratioP1;P2;durP2;ratioP2
62509;SDS011;48558;48.242;11.654;2023-05-07T00:01:57;2.25;;;1.50;;
62509;SDS011;48558;48.242;11.654;2023-05-07T00:06:09;1.98;;;1.77;;
62509;SDS011;48558;48.242;11.654;2023-05-07T00:10:25;1.80;;;1.70;;
62509;SDS011;48558;48.242;11.654;2023-05-07T00:14:38;1.70;;;1.60;;
62509;SDS011;48558;48.242;11.654;2023-05-07T00:18:50;1.63;;;1.52;;
62509;SDS011;48558;48.242;11.654;2023-05-07T00:23:04;1.73;;;1.58;;
62509;SDS011;48558;48.242;11.654;2023-05-07T00:27:17;1.50;;;1.40;;
62509;SDS011;48558;48.242;11.654;2023-05-07T00:31:29;1.90;;;1.80;;
62509;SDS011;48558;48.242;11.654;2023-05-07T00:35:42;1.63;;;1.50;;
62509;SDS011;48558;48.242;11.654;2023-05-07T00:39:55;2.40;;;2.00;;
62509;SDS011;48558;48.242;11.654;2023-05-07T00:44:07;1.65;;;1.58;;
62509;SDS011;48558;48.242;11.654;2023-05-07T00:48:20;2.50;;;2.30;;
62509;SDS011;48558;48.242;11.654;2023-05-07T00:52:33;2.30;;;2.13;;
62509;SDS011;48558;48.242;11.654;2023-05-07T00:56:46;2.20;;;2.05;;
62509;SDS011;48558;48.242;11.654;2023-05-07T01:00:58;2.15;;;1.80;;
62509;SDS011;48558;48.242;11.654;2023-05-07T01:05:12;1.83;;;1.73;;
62509;SDS011;48558;48.242;11.654;2023-05-07T01:09:28;2.00;;;1.90;;
62509;SDS011;48558;48.242;11.654;2023-05-07T01:13:41;1.80;;;1.70;;
62509;SDS011;48558;48.242;11.654;2023-05-07T01:17:54;4.75;;;2.03;;
62509;SDS011;48558;48.242;11.654;2023-05-07T01:22:08;2.90;;;2.25;;
62509;SDS011;48558;48.242;11.654;2023-05-07T01:26:26;2.10;;;2.00;;
62509;SDS011;48558;48.242;11.654;2023-05-07T01:30:39;2.75;;;1.83;;
62509;SDS011;48558;48.242;11.654;2023-05-07T01:35:05;4.38;;;2.38;;
62509;SDS011;48558;48.242;11.654;2023-05-07T01:39:19;2.88;;;2.50;;
62509;SDS011;48558;48.242;11.654;2023-05-07T01:43:32;2.15;;;2.00;;
62509;SDS011;48558;48.242;11.654;2023-05-07T01:47:45;2.08;;;1.98;;
62509;SDS011;48558;48.242;11.654;2023-05-07T01:51:59;2.30;;;2.03;;
62509;SDS011;48558;48.242;11.654;2023-05-07T01:56:12;2.00;;;1.90;;
62509;SDS011;48558;48.242;11.654;2023-05-07T02:00:24;2.63;;;1.98;;
62509;SDS011;48558;48.242;11.654;2023-05-07T02:04:37;2.53;;;2.33;;
62509;SDS011;48558;48.242;11.654;2023-05-07T02:08:49;2.67;;;1.77;;
62509;SDS011;48558;48.242;11.654;2023-05-07T02:13:02;1.90;;;1.80;;
62509;SDS011;48558;48.242;11.654;2023-05-07T02:17:15;2.65;;;2.30;;
62509;SDS011;48558;48.242;11.654;2023-05-07T02:21:35;2.65;;;2.45;;
62509;SDS011;48558;48.242;11.654;2023-05-07T02:25:48;2.10;;;2.00;;
62509;SDS011;48558;48.242;11.654;2023-05-07T02:30:09;2.35;;;2.20;;
62509;SDS011;48558;48.242;11.654;2023-05-07T02:34:22;1.98;;;1.88;;
62509;SDS011;48558;48.242;11.654;2023-05-07T02:38:45;2.20;;;2.10;;
62509;SDS011;48558;48.242;11.654;2023-05-07T02:42:57;1.98;;;1.88;;
62509;SDS011;48558;48.242;11.654;2023-05-07T02:47:20;2.05;;;1.95;;
62509;SDS011;48558;48.242;11.654;2023-05-07T02:51:32;2.28;;;2.13;;
62509;SDS011;48558;48.242;11.654;2023-05-07T02:55:45;2.38;;;2.20;;
62509;SDS011;48558;48.242;11.654;2023-05-07T02:59:57;2.30;;;2.08;;
62509;SDS011;48558;48.242;11.654;2023-05-07T03:04:10;2.70;;;2.50;;
62509;SDS011;48558;48.242;11.654;2023-05-07T03:08:33;2.45;;;2.22;;
62509;SDS011;48558;48.242;11.654;2023-05-07T03:12:45;1.85;;;1.75;;
62509;SDS011;48558;48.242;11.654;2023-05-07T03:16:58;1.90;;;1.80;;
62509;SDS011;48558;48.242;11.654;2023-05-07T03:21:10;1.90;;;1.80;;
62509;SDS011;48558;48.242;11.654;2023-05-07T03:25:23;7.25;;;2.05;;
62509;SDS011;48558;48.242;11.654;2023-05-07T03:29:36;2.60;;;2.40;;
62509;SDS011;48558;48.242;11.654;2023-05-07T03:33:56;2.70;;;2.50;;
62509;SDS011;48558;48.242;11.654;2023-05-07T03:38:10;3.58;;;2.53;;
62509;SDS011;48558;48.242;11.654;2023-05-07T03:42:23;3.05;;;2.58;;
62509;SDS011;48558;48.242;11.654;2023-05-07T03:46:35;2.58;;;2.38;;
62509;SDS011;48558;48.242;11.654;2023-05-07T03:50:48;4.13;;;2.47;;
62509;SDS011;48558;48.242;11.654;2023-05-07T03:55:01;4.38;;;2.05;;
62509;SDS011;48558;48.242;11.654;2023-05-07T03:59:13;2.85;;;2.17;;
62509;SDS011;48558;48.242;11.654;2023-05-07T04:03:26;2.20;;;2.00;;
62509;SDS011;48558;48.242;11.654;2023-05-07T04:07:38;2.53;;;2.33;;
62509;SDS011;48558;48.242;11.654;2023-05-07T04:11:51;1.88;;;1.77;;
62509;SDS011;48558;48.242;11.654;2023-05-07T04:16:04;2.03;;;1.92;;
62509;SDS011;48558;48.242;11.654;2023-05-07T04:20:18;2.50;;;2.30;;
62509;SDS011;48558;48.242;11.654;2023-05-07T04:24:31;2.05;;;1.85;;
62509;SDS011;48558;48.242;11.654;2023-05-07T04:28:55;1.92;;;1.83;;
62509;SDS011;48558;48.242;11.654;2023-05-07T04:33:07;2.42;;;2.20;;
62509;SDS011;48558;48.242;11.654;2023-05-07T04:37:20;1.95;;;1.85;;
62509;SDS011;48558;48.242;11.654;2023-05-07T04:41:35;5.47;;;2.03;;
62509;SDS011;48558;48.242;11.654;2023-05-07T04:45:51;1.95;;;1.85;;
62509;SDS011;48558;48.242;11.654;2023-05-07T04:50:05;2.40;;;2.20;;
62509;SDS011;48558;48.242;11.654;2023-05-07T04:54:20;3.13;;;2.63;;
62509;SDS011;48558;48.242;11.654;2023-05-07T04:58:33;2.55;;;2.35;;
62509;SDS011;48558;48.242;11.654;2023-05-07T05:02:45;2.47;;;2.22;;
62509;SDS011;48558;48.242;11.654;2023-05-07T05:06:58;2.35;;;2.22;;
62509;SDS011;48558;48.242;11.654;2023-05-07T05:11:10;3.40;;;2.83;;
62509;SDS011;48558;48.242;11.654;2023-05-07T05:15:23;2.65;;;2.35;;
62509;SDS011;48558;48.242;11.654;2023-05-07T05:19:36;2.92;;;2.72;;
62509;SDS011;48558;48.242;11.654;2023-05-07T05:23:48;2.88;;;2.67;;
62509;SDS011;48558;48.242;11.654;2023-05-07T05:28:01;6.10;;;2.92;;
62509;SDS011;48558;48.242;11.654;2023-05-07T05:32:13;3.22;;;2.92;;
62509;SDS011;48558;48.242;11.654;2023-05-07T05:36:26;2.65;;;2.42;;
62509;SDS011;48558;48.242;11.654;2023-05-07T05:40:39;2.50;;;2.30;;
62509;SDS011;48558;48.242;11.654;2023-05-07T05:44:51;2.38;;;2.20;;
62509;SDS011;48558;48.242;11.654;2023-05-07T05:49:04;3.03;;;2.55;;
62509;SDS011;48558;48.242;11.654;2023-05-07T05:53:16;3.30;;;2.75;;
62509;SDS011;48558;48.242;11.654;2023-05-07T05:57:38;2.92;;;2.72;;
62509;SDS011;48558;48.242;11.654;2023-05-07T06:01:51;2.55;;;2.35;;
62509;SDS011;48558;48.242;11.654;2023-05-07T06:06:04;5.28;;;2.78;;
62509;SDS011;48558;48.242;11.654;2023-05-07T06:10:16;2.83;;;2.63;;
62509;SDS011;48558;48.242;11.654;2023-05-07T06:14:39;2.40;;;2.30;;
62509;SDS011;48558;48.242;11.654;2023-05-07T06:18:52;5.80;;;3.00;;
62509;SDS011;48558;48.242;11.654;2023-05-07T06:23:10;4.07;;;3.00;;
62509;SDS011;48558;48.242;11.654;2023-05-07T06:27:22;2.55;;;2.35;;
62509;SDS011;48558;48.242;11.654;2023-05-07T06:31:39;2.78;;;2.58;;
62509;SDS011;48558;48.242;11.654;2023-05-07T06:35:51;2.97;;;2.78;;
62509;SDS011;48558;48.242;11.654;2023-05-07T06:40:05;3.28;;;2.85;;
62509;SDS011;48558;48.242;11.654;2023-05-07T06:44:19;3.15;;;2.95;;
62509;SDS011;48558;48.242;11.654;2023-05-07T06:48:32;2.95;;;2.70;;
62509;SDS011;48558;48.242;11.654;2023-05-07T06:52:44;3.40;;;3.05;;
62509;SDS011;48558;48.242;11.654;2023-05-07T06:56:57;3.20;;;2.90;;
62509;SDS011;48558;48.242;11.654;2023-05-07T07:01:09;2.90;;;2.40;;
62509;SDS011;48558;48.242;11.654;2023-05-07T07:05:25;2.30;;;2.20;;
62509;SDS011;48558;48.242;11.654;2023-05-07T07:09:38;3.38;;;3.03;;
62509;SDS011;48558;48.242;11.654;2023-05-07T07:13:50;2.65;;;2.45;;
62509;SDS011;48558;48.242;11.654;2023-05-07T07:18:08;2.22;;;2.13;;
62509;SDS011;48558;48.242;11.654;2023-05-07T07:22:21;3.88;;;2.63;;
62509;SDS011;48558;48.242;11.654;2023-05-07T07:26:34;2.38;;;2.28;;
62509;SDS011;48558;48.242;11.654;2023-05-07T07:30:46;3.35;;;2.47;;
62509;SDS011;48558;48.242;11.654;2023-05-07T07:34:59;3.03;;;2.80;;
62509;SDS011;48558;48.242;11.654;2023-05-07T07:39:21;2.50;;;2.40;;
62509;SDS011;48558;48.242;11.654;2023-05-07T07:43:34;2.40;;;2.30;;
62509;SDS011;48558;48.242;11.654;2023-05-07T07:47:47;4.88;;;2.95;;
62509;SDS011;48558;48.242;11.654;2023-05-07T07:52:00;2.60;;;2.40;;
62509;SDS011;48558;48.242;11.654;2023-05-07T07:56:12;2.50;;;2.30;;
62509;SDS011;48558;48.242;11.654;2023-05-07T08:00:25;2.40;;;2.22;;
62509;SDS011;48558;48.242;11.654;2023-05-07T08:04:45;3.35;;;2.85;;
62509;SDS011;48558;48.242;11.654;2023-05-07T08:08:58;3.15;;;2.92;;
62509;SDS011;48558;48.242;11.654;2023-05-07T08:13:10;2.75;;;2.55;;
62509;SDS011;48558;48.242;11.654;2023-05-07T08:17:23;2.80;;;2.60;;
62509;SDS011;48558;48.242;11.654;2023-05-07T08:21:38;2.95;;;2.60;;
62509;SDS011;48558;48.242;11.654;2023-05-07T08:25:53;2.65;;;2.45;;
62509;SDS011;48558;48.242;11.654;2023-05-07T08:30:05;2.88;;;2.67;;
62509;SDS011;48558;48.242;11.654;2023-05-07T08:34:19;2.55;;;2.42;;
62509;SDS011;48558;48.242;11.654;2023-05-07T08:38:33;2.35;;;2.25;;
62509;SDS011;48558;48.242;11.654;2023-05-07T08:42:48;2.40;;;2.30;;
62509;SDS011;48558;48.242;11.654;2023-05-07T08:47:02;2.35;;;2.15;;
62509;SDS011;48558;48.242;11.654;2023-05-07T08:51:15;2.40;;;2.30;;
62509;SDS011;48558;48.242;11.654;2023-05-07T08:55:30;2.65;;;2.45;;
62509;SDS011;48558;48.242;11.654;2023-05-07T08:59:43;2.20;;;2.10;;
62509;SDS011;48558;48.242;11.654;2023-05-07T09:03:56;2.45;;;2.35;;
62509;SDS011;48558;48.242;11.654;2023-05-07T09:08:14;4.57;;;2.53;;
62509;SDS011;48558;48.242;11.654;2023-05-07T09:12:28;4.28;;;2.42;;
62509;SDS011;48558;48.242;11.654;2023-05-07T09:16:40;2.50;;;1.92;;
62509;SDS011;48558;48.242;11.654;2023-05-07T09:20:53;1.90;;;1.80;;
62509;SDS011;48558;48.242;11.654;2023-05-07T09:25:07;1.95;;;1.80;;
62509;SDS011;48558;48.242;11.654;2023-05-07T09:29:25;3.80;;;2.70;;
62509;SDS011;48558;48.242;11.654;2023-05-07T09:33:38;2.08;;;1.90;;
62509;SDS011;48558;48.242;11.654;2023-05-07T09:37:52;1.73;;;1.63;;
62509;SDS011;48558;48.242;11.654;2023-05-07T09:42:10;1.98;;;1.88;;
62509;SDS011;48558;48.242;11.654;2023-05-07T09:46:29;1.42;;;1.42;;
62509;SDS011;48558;48.242;11.654;2023-05-07T09:50:49;1.67;;;1.58;;
62509;SDS011;48558;48.242;11.654;2023-05-07T09:55:06;1.98;;;1.55;;
62509;SDS011;48558;48.242;11.654;2023-05-07T09:59:20;1.67;;;1.58;;
62509;SDS011;48558;48.242;11.654;2023-05-07T10:03:35;1.98;;;1.88;;
62509;SDS011;48558;48.242;11.654;2023-05-07T10:07:48;1.50;;;1.50;;
62509;SDS011;48558;48.242;11.654;2023-05-07T10:12:02;1.30;;;1.30;;
62509;SDS011;48558;48.242;11.654;2023-05-07T10:16:15;1.95;;;1.85;;
62509;SDS011;48558;48.242;11.654;2023-05-07T10:20:29;1.85;;;1.38;;
62509;SDS011;48558;48.242;11.654;2023-05-07T10:24:43;4.28;;;1.58;;
62509;SDS011;48558;48.242;11.654;2023-05-07T10:29:02;1.50;;;1.40;;
62509;SDS011;48558;48.242;11.654;2023-05-07T10:33:23;1.85;;;1.67;;
62509;SDS011;48558;48.242;11.654;2023-05-07T10:37:40;1.27;;;1.27;;
62509;SDS011;48558;48.242;11.654;2023-05-07T10:41:53;1.48;;;1.40;;
62509;SDS011;48558;48.242;11.654;2023-05-07T10:46:13;1.50;;;1.35;;
62509;SDS011;48558;48.242;11.654;2023-05-07T10:50:30;1.20;;;1.20;;
62509;SDS011;48558;48.242;11.654;2023-05-07T10:54:43;0.95;;;0.90;;
62509;SDS011;48558;48.242;11.654;2023-05-07T10:59:01;1.35;;;1.25;;
62509;SDS011;48558;48.242;11.654;2023-05-07T11:04:12;1.20;;;1.20;;
62509;SDS011;48558;48.242;11.654;2023-05-07T11:08:32;1.20;;;1.20;;
62509;SDS011;48558;48.242;11.654;2023-05-07T11:13:07;1.00;;;1.00;;
62509;SDS011;48558;48.242;11.654;2023-05-07T11:17:20;0.90;;;0.90;;
62509;SDS011;48558;48.242;11.654;2023-05-07T11:21:33;0.90;;;0.90;;
62509;SDS011;48558;48.242;11.654;2023-05-07T11:25:57;1.00;;;0.90;;
62509;SDS011;48558;48.242;11.654;2023-05-07T11:30:18;0.77;;;0.68;;
62509;SDS011;48558;48.242;11.654;2023-05-07T11:34:30;1.10;;;1.00;;
62509;SDS011;48558;48.242;11.654;2023-05-07T11:38:50;0.90;;;0.90;;
62509;SDS011;48558;48.242;11.654;2023-05-07T11:43:12;1.30;;;1.20;;
62509;SDS011;48558;48.242;11.654;2023-05-07T11:47:24;0.85;;;0.82;;
62509;SDS011;48558;48.242;11.654;2023-05-07T11:51:37;1.00;;;1.00;;
62509;SDS011;48558;48.242;11.654;2023-05-07T11:55:52;1.10;;;0.80;;
62509;SDS011;48558;48.242;11.654;2023-05-07T12:00:12;1.08;;;0.95;;
62509;SDS011;48558;48.242;11.654;2023-05-07T12:04:29;0.75;;;0.75;;
62509;SDS011;48558;48.242;11.654;2023-05-07T12:08:42;0.80;;;0.80;;
62509;SDS011;48558;48.242;11.654;2023-05-07T12:12:58;0.60;;;0.60;;
62509;SDS011;48558;48.242;11.654;2023-05-07T12:17:11;0.57;;;0.57;;
62509;SDS011;48558;48.242;11.654;2023-05-07T12:21:26;1.85;;;1.00;;
62509;SDS011;48558;48.242;11.654;2023-05-07T12:25:39;1.80;;;0.70;;
62509;SDS011;48558;48.242;11.654;2023-05-07T12:29:58;0.80;;;0.80;;
62509;SDS011;48558;48.242;11.654;2023-05-07T12:34:11;0.85;;;0.85;;
62509;SDS011;48558;48.242;11.654;2023-05-07T12:38:24;0.70;;;0.70;;
62509;SDS011;48558;48.242;11.654;2023-05-07T12:42:47;0.80;;;0.80;;
62509;SDS011;48558;48.242;11.654;2023-05-07T12:47:08;1.20;;;1.20;;
62509;SDS011;48558;48.242;11.654;2023-05-07T12:51:21;2.58;;;1.42;;
62509;SDS011;48558;48.242;11.654;2023-05-07T12:55:41;1.77;;;1.50;;
62509;SDS011;48558;48.242;11.654;2023-05-07T12:59:57;1.45;;;1.27;;
62509;SDS011;48558;48.242;11.654;2023-05-07T13:04:10;1.60;;;1.50;;
62509;SDS011;48558;48.242;11.654;2023-05-07T13:08:29;1.35;;;1.25;;
62509;SDS011;48558;48.242;11.654;2023-05-07T13:12:51;1.52;;;1.42;;
62509;SDS011;48558;48.242;11.654;2023-05-07T13:17:03;1.10;;;1.10;;
62509;SDS011;48558;48.242;11.654;2023-05-07T13:21:16;1.70;;;1.60;;
62509;SDS011;48558;48.242;11.654;2023-05-07T13:25:29;1.65;;;1.58;;
62509;SDS011;48558;48.242;11.654;2023-05-07T13:29:47;1.80;;;1.70;;
62509;SDS011;48558;48.242;11.654;2023-05-07T13:34:09;1.70;;;1.60;;
62509;SDS011;48558;48.242;11.654;2023-05-07T13:38:22;1.65;;;1.40;;
62509;SDS011;48558;48.242;11.654;2023-05-07T13:42:35;1.27;;;1.27;;
62509;SDS011;48558;48.242;11.654;2023-05-07T13:46:47;2.03;;;1.38;;
62509;SDS011;48558;48.242;11.654;2023-05-07T13:51:00;1.30;;;1.30;;
62509;SDS011;48558;48.242;11.654;2023-05-07T13:55:12;1.05;;;1.05;;
62509;SDS011;48558;48.242;11.654;2023-05-07T13:59:25;1.17;;;1.17;;
62509;SDS011;48558;48.242;11.654;2023-05-07T14:03:48;1.20;;;1.15;;
62509;SDS011;48558;48.242;11.654;2023-05-07T14:08:01;1.25;;;1.20;;
62509;SDS011;48558;48.242;11.654;2023-05-07T14:12:23;1.02;;;1.00;;
62509;SDS011;48558;48.242;11.654;2023-05-07T14:16:36;0.93;;;0.93;;
62509;SDS011;48558;48.242;11.654;2023-05-07T14:20:49;1.30;;;1.27;;
62509;SDS011;48558;48.242;11.654;2023-05-07T14:25:01;1.00;;;1.00;;
62509;SDS011;48558;48.242;11.654;2023-05-07T14:29:17;1.33;;;1.23;;
62509;SDS011;48558;48.242;11.654;2023-05-07T14:33:34;1.75;;;1.50;;
62509;SDS011;48558;48.242;11.654;2023-05-07T14:37:47;1.15;;;1.13;;
62509;SDS011;48558;48.242;11.654;2023-05-07T14:41:59;1.88;;;0.93;;
62509;SDS011;48558;48.242;11.654;2023-05-07T14:46:12;1.10;;;1.10;;
62509;SDS011;48558;48.242;11.654;2023-05-07T14:50:30;0.95;;;0.95;;
62509;SDS011;48558;48.242;11.654;2023-05-07T14:54:43;4.15;;;0.90;;
62509;SDS011;48558;48.242;11.654;2023-05-07T14:58:55;0.95;;;0.95;;
62509;SDS011;48558;48.242;11.654;2023-05-07T15:03:09;2.60;;;0.98;;
62509;SDS011;48558;48.242;11.654;2023-05-07T15:07:22;1.10;;;1.10;;
62509;SDS011;48558;48.242;11.654;2023-05-07T15:11:34;0.90;;;0.90;;
62509;SDS011;48558;48.242;11.654;2023-05-07T15:15:47;0.80;;;0.80;;
62509;SDS011;48558;48.242;11.654;2023-05-07T15:20:10;1.05;;;1.05;;
62509;SDS011;48558;48.242;11.654;2023-05-07T15:24:24;2.05;;;0.77;;
62509;SDS011;48558;48.242;11.654;2023-05-07T15:28:36;1.13;;;1.02;;
62509;SDS011;48558;48.242;11.654;2023-05-07T15:32:50;0.93;;;0.93;;
62509;SDS011;48558;48.242;11.654;2023-05-07T15:37:03;1.60;;;0.95;;
62509;SDS011;48558;48.242;11.654;2023-05-07T15:41:16;1.10;;;1.10;;
62509;SDS011;48558;48.242;11.654;2023-05-07T15:45:28;0.93;;;0.93;;
62509;SDS011;48558;48.242;11.654;2023-05-07T15:49:41;0.80;;;0.80;;
62509;SDS011;48558;48.242;11.654;2023-05-07T15:53:54;1.10;;;1.10;;
62509;SDS011;48558;48.242;11.654;2023-05-07T15:58:06;0.95;;;0.93;;
62509;SDS011;48558;48.242;11.654;2023-05-07T16:02:19;0.80;;;0.80;;
62509;SDS011;48558;48.242;11.654;2023-05-07T16:06:32;1.77;;;1.00;;
62509;SDS011;48558;48.242;11.654;2023-05-07T16:15:03;0.90;;;0.90;;
62509;SDS011;48558;48.242;11.654;2023-05-07T16:19:17;0.90;;;0.90;;
62509;SDS011;48558;48.242;11.654;2023-05-07T16:23:30;0.80;;;0.80;;
62509;SDS011;48558;48.242;11.654;2023-05-07T16:27:42;0.90;;;0.90;;
62509;SDS011;48558;48.242;11.654;2023-05-07T16:31:55;1.00;;;1.00;;
62509;SDS011;48558;48.242;11.654;2023-05-07T16:36:08;0.82;;;0.82;;
62509;SDS011;48558;48.242;11.654;2023-05-07T16:40:22;1.00;;;1.00;;
62509;SDS011;48558;48.242;11.654;2023-05-07T16:44:34;0.98;;;0.98;;
62509;SDS011;48558;48.242;11.654;2023-05-07T16:48:46;0.82;;;0.82;;
62509;SDS011;48558;48.242;11.654;2023-05-07T16:52:59;0.98;;;0.98;;
62509;SDS011;48558;48.242;11.654;2023-05-07T16:57:22;0.90;;;0.90;;
62509;SDS011;48558;48.242;11.654;2023-05-07T17:01:34;0.82;;;0.82;;
62509;SDS011;48558;48.242;11.654;2023-05-07T17:05:47;1.00;;;1.00;;
62509;SDS011;48558;48.242;11.654;2023-05-07T17:10:00;1.23;;;1.23;;
62509;SDS011;48558;48.242;11.654;2023-05-07T17:14:13;0.90;;;0.90;;
62509;SDS011;48558;48.242;11.654;2023-05-07T17:18:26;1.08;;;1.08;;
62509;SDS011;48558;48.242;11.654;2023-05-07T17:22:38;1.10;;;1.10;;
62509;SDS011;48558;48.242;11.654;2023-05-07T17:26:51;1.67;;;1.13;;
62509;SDS011;48558;48.242;11.654;2023-05-07T17:31:04;0.90;;;0.90;;
62509;SDS011;48558;48.242;11.654;2023-05-07T17:35:18;1.20;;;1.10;;
62509;SDS011;48558;48.242;11.654;2023-05-07T17:39:31;2.60;;;0.95;;
62509;SDS011;48558;48.242;11.654;2023-05-07T17:43:53;1.15;;;0.95;;
62509;SDS011;48558;48.242;11.654;2023-05-07T17:48:07;0.75;;;0.75;;
62509;SDS011;48558;48.242;11.654;2023-05-07T17:52:19;1.10;;;1.10;;
62509;SDS011;48558;48.242;11.654;2023-05-07T17:56:32;1.20;;;0.98;;
62509;SDS011;48558;48.242;11.654;2023-05-07T18:00:44;0.95;;;0.95;;
62509;SDS011;48558;48.242;11.654;2023-05-07T18:04:57;0.90;;;0.90;;
62509;SDS011;48558;48.242;11.654;2023-05-07T18:09:10;1.02;;;1.02;;
62509;SDS011;48558;48.242;11.654;2023-05-07T18:13:22;0.90;;;0.90;;
62509;SDS011;48558;48.242;11.654;2023-05-07T18:17:35;0.90;;;0.90;;
62509;SDS011;48558;48.242;11.654;2023-05-07T18:21:48;1.17;;;1.00;;
62509;SDS011;48558;48.242;11.654;2023-05-07T18:26:10;0.93;;;0.93;;
62509;SDS011;48558;48.242;11.654;2023-05-07T18:30:23;1.10;;;1.10;;
62509;SDS011;48558;48.242;11.654;2023-05-07T18:34:36;1.17;;;1.00;;
62509;SDS011;48558;48.242;11.654;2023-05-07T18:38:58;1.45;;;1.23;;
62509;SDS011;48558;48.242;11.654;2023-05-07T18:43:20;2.83;;;1.60;;
62509;SDS011;48558;48.242;11.654;2023-05-07T18:47:32;2.80;;;1.48;;
62509;SDS011;48558;48.242;11.654;2023-05-07T18:51:45;1.90;;;1.63;;
62509;SDS011;48558;48.242;11.654;2023-05-07T18:56:07;1.33;;;1.23;;
62509;SDS011;48558;48.242;11.654;2023-05-07T19:00:28;2.60;;;1.55;;
62509;SDS011;48558;48.242;11.654;2023-05-07T19:04:50;1.80;;;1.48;;
62509;SDS011;48558;48.242;11.654;2023-05-07T19:09:03;1.83;;;1.73;;
62509;SDS011;48558;48.242;11.654;2023-05-07T19:13:16;1.80;;;1.70;;
62509;SDS011;48558;48.242;11.654;2023-05-07T19:17:28;1.55;;;1.52;;
62509;SDS011;48558;48.242;11.654;2023-05-07T19:21:41;2.10;;;2.00;;
62509;SDS011;48558;48.242;11.654;2023-05-07T19:25:53;2.03;;;1.92;;
62509;SDS011;48558;48.242;11.654;2023-05-07T19:30:07;1.80;;;1.70;;
62509;SDS011;48558;48.242;11.654;2023-05-07T19:34:20;2.15;;;2.00;;
62509;SDS011;48558;48.242;11.654;2023-05-07T19:38:38;2.00;;;1.90;;
62509;SDS011;48558;48.242;11.654;2023-05-07T19:42:51;2.17;;;2.08;;
62509;SDS011;48558;48.242;11.654;2023-05-07T19:47:03;1.73;;;1.63;;
62509;SDS011;48558;48.242;11.654;2023-05-07T19:51:17;1.90;;;1.80;;
62509;SDS011;48558;48.242;11.654;2023-05-07T19:55:29;1.70;;;1.60;;
62509;SDS011;48558;48.242;11.654;2023-05-07T19:59:42;1.75;;;1.65;;
62509;SDS011;48558;48.242;11.654;2023-05-07T20:03:55;2.03;;;1.90;;
62509;SDS011;48558;48.242;11.654;2023-05-07T20:08:07;1.85;;;1.75;;
62509;SDS011;48558;48.242;11.654;2023-05-07T20:12:20;2.15;;;2.00;;
62509;SDS011;48558;48.242;11.654;2023-05-07T20:16:33;2.22;;;1.95;;
62509;SDS011;48558;48.242;11.654;2023-05-07T20:20:45;2.03;;;1.92;;
62509;SDS011;48558;48.242;11.654;2023-05-07T20:24:58;1.92;;;1.83;;
62509;SDS011;48558;48.242;11.654;2023-05-07T20:29:11;2.10;;;1.95;;
62509;SDS011;48558;48.242;11.654;2023-05-07T20:33:24;1.88;;;1.77;;
62509;SDS011;48558;48.242;11.654;2023-05-07T20:37:37;1.90;;;1.80;;
62509;SDS011;48558;48.242;11.654;2023-05-07T20:41:50;2.25;;;2.13;;
62509;SDS011;48558;48.242;11.654;2023-05-07T20:46:04;2.45;;;2.20;;
62509;SDS011;48558;48.242;11.654;2023-05-07T20:50:20;2.15;;;2.00;;
62509;SDS011;48558;48.242;11.654;2023-05-07T20:54:35;3.40;;;2.20;;
62509;SDS011;48558;48.242;11.654;2023-05-07T20:58:51;3.78;;;2.47;;
62509;SDS011;48558;48.242;11.654;2023-05-07T21:03:13;2.75;;;2.10;;
62509;SDS011;48558;48.242;11.654;2023-05-07T21:07:36;2.03;;;1.92;;
62509;SDS011;48558;48.242;11.654;2023-05-07T21:11:48;1.95;;;1.80;;
62509;SDS011;48558;48.242;11.654;2023-05-07T21:16:01;2.25;;;2.15;;
62509;SDS011;48558;48.242;11.654;2023-05-07T21:20:13;2.17;;;2.08;;
62509;SDS011;48558;48.242;11.654;2023-05-07T21:24:29;2.25;;;2.15;;
62509;SDS011;48558;48.242;11.654;2023-05-07T21:28:52;2.55;;;2.10;;
62509;SDS011;48558;48.242;11.654;2023-05-07T21:33:05;3.33;;;2.25;;
62509;SDS011;48558;48.242;11.654;2023-05-07T21:37:18;2.58;;;2.38;;
62509;SDS011;48558;48.242;11.654;2023-05-07T21:45:50;2.00;;;1.90;;
62509;SDS011;48558;48.242;11.654;2023-05-07T21:50:03;2.17;;;2.08;;
62509;SDS011;48558;48.242;11.654;2023-05-07T21:54:16;2.58;;;2.38;;
62509;SDS011;48558;48.242;11.654;2023-05-07T21:58:37;2.40;;;2.20;;
62509;SDS011;48558;48.242;11.654;2023-05-07T22:02:50;2.55;;;2.35;;
62509;SDS011;48558;48.242;11.654;2023-05-07T22:07:03;2.78;;;2.58;;
62509;SDS011;48558;48.242;11.654;2023-05-07T22:11:15;2.65;;;2.45;;
62509;SDS011;48558;48.242;11.654;2023-05-07T22:15:32;2.33;;;2.20;;
62509;SDS011;48558;48.242;11.654;2023-05-07T22:19:52;2.80;;;2.53;;
62509;SDS011;48558;48.242;11.654;2023-05-07T22:24:05;2.22;;;2.03;;
62509;SDS011;48558;48.242;11.654;2023-05-07T22:28:20;3.22;;;2.92;;
62509;SDS011;48558;48.242;11.654;2023-05-07T22:32:33;3.13;;;2.53;;
62509;SDS011;48558;48.242;11.654;2023-05-07T22:36:45;3.28;;;2.72;;
62509;SDS011;48558;48.242;11.654;2023-05-07T22:41:05;3.63;;;2.88;;
62509;SDS011;48558;48.242;11.654;2023-05-07T22:45:17;2.53;;;2.33;;
62509;SDS011;48558;48.242;11.654;2023-05-07T22:49:30;2.65;;;2.45;;
62509;SDS011;48558;48.242;11.654;2023-05-07T22:53:44;2.85;;;2.63;;
62509;SDS011;48558;48.242;11.654;2023-05-07T22:58:07;2.97;;;2.78;;
62509;SDS011;48558;48.242;11.654;2023-05-07T23:02:20;3.60;;;2.90;;
62509;SDS011;48558;48.242;11.654;2023-05-07T23:06:32;3.45;;;2.85;;
62509;SDS011;48558;48.242;11.654;2023-05-07T23:10:45;5.22;;;3.05;;
62509;SDS011;48558;48.242;11.654;2023-05-07T23:15:07;3.38;;;3.05;;
62509;SDS011;48558;48.242;11.654;2023-05-07T23:19:20;3.25;;;2.90;;
62509;SDS011;48558;48.242;11.654;2023-05-07T23:23:33;4.43;;;3.33;;
62509;SDS011;48558;48.242;11.654;2023-05-07T23:27:46;4.15;;;3.08;;
62509;SDS011;48558;48.242;11.654;2023-05-07T23:32:00;3.03;;;2.80;;
62509;SDS011;48558;48.242;11.654;2023-05-07T23:36:13;3.25;;;2.95;;
62509;SDS011;48558;48.242;11.654;2023-05-07T23:40:25;3.85;;;3.28;;
62509;SDS011;48558;48.242;11.654;2023-05-07T23:44:38;4.15;;;2.95;;
62509;SDS011;48558;48.242;11.654;2023-05-07T23:48:50;3.63;;;3.00;;
62509;SDS011;48558;48.242;11.654;2023-05-07T23:53:13;3.47;;;3.17;;
62509;SDS011;48558;48.242;11.654;2023-05-07T23:57:29;5.60;;;3.17;;
